createdAt,value
2023-01-11T00:00:23.727Z,7.10
2023-01-11T00:05:25.747Z,7.10
2023-01-11T00:10:29.308Z,7.20
2023-01-11T00:15:31.477Z,7.20
2023-01-11T00:20:33.401Z,7.20
2023-01-11T00:25:35.529Z,7.30
2023-01-11T00:30:37.403Z,7.40
2023-01-11T00:35:39.065Z,7.40
2023-01-11T00:40:40.669Z,7.50
2023-01-11T00:46:00.851Z,7.60
2023-01-11T00:51:02.497Z,7.60
2023-01-11T00:56:04.399Z,7.60
2023-01-11T01:01:07.489Z,7.70
2023-01-11T01:06:09.270Z,7.80
2023-01-11T01:11:11.133Z,7.80
2023-01-11T01:16:12.898Z,7.90
2023-01-11T01:21:14.598Z,7.90
2023-01-11T01:26:16.328Z,7.90
2023-01-11T01:31:18.041Z,8.00
2023-01-11T01:36:19.721Z,8.00
2023-01-11T01:41:21.516Z,8.00
2023-01-11T01:46:28.074Z,8.00
2023-01-11T01:51:38.683Z,8.10
2023-01-11T01:56:48.006Z,8.10
2023-01-11T02:01:50.401Z,8.20
2023-01-11T02:06:59.625Z,8.20
2023-01-11T02:12:03.138Z,8.20
2023-01-11T02:17:04.967Z,8.30
2023-01-11T02:22:45.035Z,8.40
2023-01-11T02:27:58.805Z,8.40
2023-01-11T02:33:25.369Z,8.60
2023-01-11T02:38:46.008Z,8.60
2023-01-11T02:44:25.640Z,8.70
2023-01-11T02:49:36.877Z,8.70
2023-01-11T02:54:43.179Z,8.80
2023-01-11T02:59:49.026Z,8.80
2023-01-11T03:04:50.758Z,8.90
2023-01-11T03:10:16.652Z,9.00
2023-01-11T03:15:35.971Z,8.90
2023-01-11T03:20:54.139Z,8.90
2023-01-11T03:26:11.564Z,8.90
2023-01-11T03:31:21.833Z,9.00
2023-01-11T03:36:30.160Z,9.00
2023-01-11T03:41:36.915Z,9.00
2023-01-11T03:46:45.924Z,9.10
2023-01-11T03:51:48.723Z,9.10
2023-01-11T03:57:09.521Z,9.10
2023-01-11T04:02:29.044Z,9.10
2023-01-11T04:07:30.661Z,9.20
2023-01-11T04:12:32.350Z,9.30
2023-01-11T04:17:34.022Z,9.30
2023-01-11T04:22:35.814Z,9.50
2023-01-11T04:27:37.529Z,9.40
2023-01-11T04:32:39.134Z,9.50
2023-01-11T04:37:40.837Z,9.60
2023-01-11T04:42:46.676Z,9.60
2023-01-11T04:47:55.166Z,9.60
2023-01-11T04:53:00.286Z,9.70
2023-01-11T04:58:01.963Z,9.70
2023-01-11T05:03:03.610Z,9.70
2023-01-11T05:08:05.327Z,9.70
2023-01-11T05:13:06.993Z,9.70
2023-01-11T05:18:08.645Z,9.70
2023-01-11T05:23:10.251Z,9.80
2023-01-11T05:28:11.907Z,9.80
2023-01-11T05:33:13.568Z,9.80
2023-01-11T05:38:15.215Z,9.80
2023-01-11T05:43:16.855Z,9.80
2023-01-11T05:48:19.266Z,9.80
2023-01-11T05:53:23.306Z,10.00
2023-01-11T05:58:26.657Z,9.80
2023-01-11T06:03:28.484Z,9.90
2023-01-11T06:08:30.097Z,9.90
2023-01-11T06:13:33.820Z,9.90
2023-01-11T06:18:38.286Z,9.90
2023-01-11T06:23:43.120Z,10.00
2023-01-11T06:28:45.008Z,10.00
2023-01-11T06:33:47.520Z,10.00
2023-01-11T06:38:49.196Z,10.10
2023-01-11T06:43:51.394Z,10.10
2023-01-11T06:48:53.072Z,10.10
2023-01-11T06:53:54.708Z,10.20
2023-01-11T06:58:56.473Z,10.10
2023-01-11T07:03:58.266Z,10.20
2023-01-11T07:09:00.043Z,10.20
2023-01-11T07:14:02.566Z,10.20
2023-01-11T07:19:04.310Z,10.20
2023-01-11T07:24:06.186Z,10.20
2023-01-11T07:29:08.655Z,10.10
2023-01-11T07:34:10.350Z,10.20
2023-01-11T07:39:13.199Z,10.20
2023-01-11T07:44:15.024Z,10.30
2023-01-11T07:49:16.838Z,10.30
2023-01-11T07:54:19.162Z,10.30
2023-01-11T07:59:20.841Z,10.30
2023-01-11T08:04:22.899Z,10.30
2023-01-11T08:09:24.685Z,10.40
2023-01-11T08:14:41.761Z,10.30
2023-01-11T08:19:44.133Z,10.30
2023-01-11T08:24:46.016Z,10.30
2023-01-11T08:29:47.796Z,10.30
2023-01-11T08:34:49.550Z,10.40
2023-01-11T08:39:51.323Z,10.40
2023-01-11T08:44:52.951Z,10.40
2023-01-11T08:49:54.786Z,10.40
2023-01-11T08:54:56.523Z,10.40
2023-01-11T08:59:58.418Z,10.30
2023-01-11T09:05:00.048Z,10.20
2023-01-11T09:10:01.949Z,10.30
2023-01-11T09:15:06.126Z,10.30
2023-01-11T09:20:08.355Z,10.30
2023-01-11T09:25:10.261Z,10.30
2023-01-11T09:30:13.750Z,10.30
2023-01-11T09:35:16.733Z,10.30
2023-01-11T09:40:22.561Z,10.30
2023-01-11T09:45:30.428Z,10.20
2023-01-11T09:50:41.668Z,10.20
2023-01-11T09:55:50.332Z,10.20
2023-01-11T10:01:27.467Z,10.20
2023-01-11T10:06:42.474Z,10.20
2023-01-11T10:18:38.533Z,10.30
2023-01-11T10:23:07.309Z,10.30
2023-01-11T10:28:31.920Z,10.30
2023-01-11T10:34:16.206Z,10.30
2023-01-11T10:39:24.745Z,10.30
2023-01-11T10:44:44.604Z,10.20
2023-01-11T10:49:59.303Z,10.20
2023-01-11T10:55:12.855Z,10.20
2023-01-11T11:00:17.461Z,10.20
2023-01-11T11:05:26.647Z,10.20
2023-01-11T11:10:43.362Z,10.20
2023-01-11T11:15:55.456Z,10.10
2023-01-11T11:21:03.538Z,10.10
2023-01-11T11:26:07.350Z,10.20
2023-01-11T11:31:13.585Z,10.20
2023-01-11T11:36:17.531Z,10.20
2023-01-11T11:41:19.357Z,10.30
2023-01-11T11:46:26.381Z,10.40
2023-01-11T11:51:30.121Z,10.40
2023-01-11T11:56:34.765Z,10.40
2023-01-11T12:01:48.332Z,10.40
2023-01-11T12:07:19.222Z,10.40
2023-01-11T12:12:24.406Z,10.50
2023-01-11T12:17:28.371Z,10.50
2023-01-11T12:22:30.169Z,10.40
2023-01-11T12:27:46.975Z,10.40
2023-01-11T12:33:31.799Z,10.30
2023-01-11T12:38:36.401Z,10.30
2023-01-11T12:44:04.814Z,10.20
2023-01-11T12:49:15.745Z,10.10
2023-01-11T12:54:42.059Z,10.00
2023-01-11T13:00:02.213Z,9.90
2023-01-11T13:05:17.055Z,9.90
2023-01-11T13:10:53.564Z,9.80
2023-01-11T13:16:17.040Z,9.70
2023-01-11T13:21:27.668Z,9.70
2023-01-11T13:26:35.711Z,9.70
2023-01-11T13:31:38.492Z,9.70
2023-01-11T13:36:45.625Z,9.70
2023-01-11T13:41:58.034Z,9.70
2023-01-11T13:47:22.871Z,9.70
2023-01-11T13:52:43.752Z,9.70
2023-01-11T13:58:06.931Z,9.80
2023-01-11T14:03:29.079Z,9.90
2023-01-11T14:09:01.855Z,9.90
2023-01-11T14:14:25.595Z,9.90
2023-01-11T14:19:33.030Z,9.90
2023-01-11T14:24:38.249Z,9.80
2023-01-11T14:30:13.993Z,9.80
2023-01-11T14:35:42.970Z,9.70
2023-01-11T14:41:03.257Z,9.70
2023-01-11T14:46:23.059Z,9.70
2023-01-11T14:51:52.173Z,9.70
2023-01-11T14:57:00.386Z,9.70
2023-01-11T15:02:05.469Z,9.60
2023-01-11T15:07:30.332Z,9.60
2023-01-11T15:12:38.415Z,9.50
2023-01-11T15:17:59.932Z,9.50
2023-01-11T15:23:04.506Z,9.40
2023-01-11T15:28:40.450Z,9.30
2023-01-11T15:33:47.332Z,9.20
2023-01-11T15:38:53.206Z,9.20
2023-01-11T15:44:04.981Z,9.00
2023-01-11T15:49:09.417Z,8.90
2023-01-11T15:54:14.323Z,8.80
2023-01-11T15:59:46.773Z,8.70
2023-01-11T16:05:11.886Z,8.60
2023-01-11T16:10:50.587Z,8.50
2023-01-11T16:16:06.161Z,8.40
2023-01-11T16:21:14.241Z,8.20
2023-01-11T16:26:19.576Z,8.20
2023-01-11T16:31:21.544Z,8.10
2023-01-11T16:36:24.182Z,8.10
2023-01-11T16:41:51.283Z,8.10
2023-01-11T16:47:04.986Z,8.00
2023-01-11T16:52:58.669Z,7.90
2023-01-11T16:58:06.575Z,7.90
2023-01-11T17:03:19.178Z,7.70
2023-01-11T17:08:32.902Z,7.70
2023-01-11T17:13:54.492Z,7.70
2023-01-11T17:19:00.930Z,7.60
2023-01-11T17:24:05.517Z,7.50
2023-01-11T17:29:07.678Z,7.50
2023-01-11T17:34:19.952Z,7.30
2023-01-11T17:39:28.078Z,7.20
2023-01-11T17:44:48.792Z,7.10
2023-01-11T17:49:51.134Z,7.10
2023-01-11T17:55:14.540Z,7.00
2023-01-11T18:00:28.523Z,7.00
2023-01-11T18:05:30.568Z,7.00
2023-01-11T18:10:37.200Z,7.00
2023-01-11T18:15:38.861Z,7.10
2023-01-11T18:20:40.880Z,7.10
2023-01-11T18:25:45.901Z,7.00
2023-01-11T18:30:54.955Z,7.00
2023-01-11T18:36:03.032Z,7.00
2023-01-11T18:41:26.689Z,6.90
2023-01-11T18:46:28.619Z,6.90
2023-01-11T18:51:36.149Z,6.90
2023-01-11T18:56:37.804Z,6.90
2023-01-11T19:01:56.136Z,6.90
2023-01-11T19:07:00.524Z,6.90
2023-01-11T19:12:02.472Z,6.90
2023-01-11T19:17:06.940Z,7.00
2023-01-11T19:22:10.184Z,6.90
2023-01-11T19:27:13.384Z,6.90
2023-01-11T19:32:15.772Z,6.90
2023-01-11T19:37:17.712Z,6.90
2023-01-11T19:42:19.551Z,6.90
2023-01-11T19:47:21.264Z,6.90
2023-01-11T19:52:22.944Z,6.90
2023-01-11T19:57:24.658Z,7.00
2023-01-11T20:02:26.612Z,7.10
2023-01-11T20:07:28.273Z,7.10
2023-01-11T20:12:30.332Z,7.10
2023-01-11T20:17:33.323Z,7.20
2023-01-11T20:22:35.415Z,7.20
2023-01-11T20:27:37.062Z,7.20
2023-01-11T20:32:41.806Z,7.20
2023-01-11T20:37:43.964Z,7.20
2023-01-11T20:42:45.692Z,7.30
2023-01-11T20:47:47.362Z,7.40
2023-01-11T20:52:49.566Z,7.40
2023-01-11T20:57:51.507Z,7.50
2023-01-11T21:02:53.241Z,7.60
2023-01-11T21:07:54.996Z,7.60
2023-01-11T21:17:59.391Z,7.70
2023-01-11T21:23:01.461Z,7.80
2023-01-11T21:28:03.947Z,7.80
2023-01-11T21:33:05.725Z,7.80
2023-01-11T21:38:07.508Z,7.90
2023-01-11T21:43:09.223Z,8.00
2023-01-11T21:48:10.829Z,8.20
2023-01-11T21:53:12.532Z,8.30
2023-01-11T21:58:14.210Z,8.30
2023-01-11T22:03:15.862Z,8.50
2023-01-11T22:08:17.467Z,8.50
2023-01-11T22:13:19.116Z,8.60
2023-01-11T22:18:22.203Z,8.70
2023-01-11T22:23:24.060Z,8.80
2023-01-11T22:28:25.658Z,8.80
2023-01-11T22:33:27.280Z,8.90
2023-01-11T22:38:28.988Z,9.00
2023-01-11T22:43:30.699Z,9.10
2023-01-11T22:48:32.316Z,9.10
2023-01-11T22:53:38.139Z,9.10
2023-01-11T22:58:39.840Z,9.10
2023-01-11T23:03:42.477Z,9.20
2023-01-11T23:08:44.306Z,9.10
2023-01-11T23:14:01.924Z,9.10
2023-01-11T23:19:05.044Z,9.20
2023-01-11T23:24:07.101Z,9.20
2023-01-11T23:29:08.810Z,9.20
2023-01-11T23:34:11.594Z,9.20
2023-01-11T23:39:15.917Z,9.20
2023-01-11T23:44:17.741Z,9.20
2023-01-11T23:49:19.641Z,9.30
2023-01-11T23:54:21.696Z,9.20
2023-01-11T23:59:23.807Z,9.20
